createdAt,value
2022-10-07T00:01:04.838Z,70.00
2022-10-07T00:03:34.947Z,71.80
2022-10-07T00:06:06.359Z,72.80
2022-10-07T00:08:35.937Z,80.40
2022-10-07T00:11:08.460Z,80.00
2022-10-07T00:13:38.943Z,83.10
2022-10-07T00:16:09.391Z,81.10
2022-10-07T00:18:37.978Z,88.40
2022-10-07T00:21:07.386Z,87.70
2022-10-07T00:23:35.422Z,85.70
2022-10-07T00:26:04.473Z,90.40
2022-10-07T00:28:32.309Z,87.50
2022-10-07T00:31:05.365Z,88.40
2022-10-07T00:33:35.824Z,85.40
2022-10-07T00:36:19.033Z,84.30
2022-10-07T00:38:50.063Z,83.10
2022-10-07T00:41:20.637Z,84.50
2022-10-07T00:43:48.582Z,83.70
2022-10-07T00:46:27.294Z,90.00
2022-10-07T00:48:55.601Z,90.30
2022-10-07T00:51:22.912Z,90.30
2022-10-07T00:53:52.645Z,89.90
2022-10-07T00:56:20.003Z,93.10
2022-10-07T00:58:49.343Z,92.30
2022-10-07T01:01:19.227Z,92.70
2022-10-07T01:03:48.950Z,91.00
2022-10-07T01:06:16.180Z,90.40
2022-10-07T01:08:45.643Z,87.30
2022-10-07T01:11:55.968Z,88.60
2022-10-07T01:14:40.027Z,89.20
2022-10-07T01:17:47.005Z,90.80
2022-10-07T01:20:32.877Z,93.00
2022-10-07T01:23:03.194Z,93.50
2022-10-07T01:25:58.386Z,93.50
2022-10-07T01:28:33.991Z,93.60
2022-10-07T01:31:05.237Z,95.10
2022-10-07T01:33:34.603Z,92.90
2022-10-07T01:36:09.464Z,93.70
2022-10-07T01:38:39.994Z,94.10
2022-10-07T01:41:15.145Z,94.30
2022-10-07T01:43:44.937Z,94.70
2022-10-07T01:46:18.476Z,94.40
2022-10-07T01:48:49.193Z,94.90
2022-10-07T01:51:23.367Z,96.80
2022-10-07T01:54:33.075Z,96.10
2022-10-07T01:57:27.414Z,95.00
2022-10-07T02:00:01.731Z,95.70
2022-10-07T02:03:21.465Z,97.00
2022-10-07T02:06:04.897Z,95.70
2022-10-07T02:08:46.502Z,99.20
2022-10-07T02:11:24.525Z,99.60
2022-10-07T02:14:24.802Z,99.30
2022-10-07T02:17:05.511Z,99.70
2022-10-07T02:19:36.055Z,98.40
2022-10-07T02:22:04.232Z,97.80
2022-10-07T02:24:35.586Z,98.70
2022-10-07T02:27:11.036Z,98.00
2022-10-07T02:29:42.865Z,98.50
2022-10-07T02:32:17.902Z,99.90
2022-10-07T02:34:48.904Z,99.70
2022-10-07T02:37:24.789Z,99.90
2022-10-07T02:39:53.835Z,99.90
2022-10-07T02:42:39.406Z,99.90
2022-10-07T02:45:13.845Z,99.90
2022-10-07T02:47:47.635Z,99.90
2022-10-07T02:50:22.445Z,99.90
2022-10-07T02:52:54.475Z,99.30
2022-10-07T02:55:25.894Z,99.20
2022-10-07T02:57:57.594Z,99.90
2022-10-07T03:00:25.051Z,99.90
2022-10-07T03:02:56.388Z,99.90
2022-10-07T03:05:29.194Z,99.90
2022-10-07T03:08:03.952Z,99.90
2022-10-07T03:10:33.249Z,99.90
2022-10-07T03:13:04.983Z,99.90
2022-10-07T03:15:41.078Z,99.90
2022-10-07T03:18:26.477Z,99.90
2022-10-07T03:21:00.240Z,99.90
2022-10-07T03:23:29.524Z,99.90
2022-10-07T03:25:58.423Z,99.90
2022-10-07T03:28:28.071Z,99.90
2022-10-07T03:31:08.106Z,99.90
2022-10-07T03:33:37.468Z,99.90
2022-10-07T03:36:07.896Z,99.90
2022-10-07T03:38:35.422Z,99.90
2022-10-07T03:41:04.597Z,99.90
2022-10-07T03:43:33.537Z,99.90
2022-10-07T03:46:02.494Z,99.90
2022-10-07T03:48:32.147Z,99.90
2022-10-07T03:50:59.207Z,99.90
2022-10-07T03:53:29.781Z,99.90
2022-10-07T03:55:58.855Z,99.90
2022-10-07T03:58:26.115Z,99.90
2022-10-07T04:01:03.491Z,99.90
2022-10-07T04:03:30.750Z,99.90
2022-10-07T04:05:59.727Z,99.90
2022-10-07T04:08:32.340Z,99.90
2022-10-07T04:11:02.078Z,99.90
2022-10-07T04:13:29.847Z,99.90
2022-10-07T04:15:57.971Z,99.90
2022-10-07T04:18:26.286Z,99.90
2022-10-07T04:20:54.101Z,99.90
2022-10-07T04:23:22.244Z,99.90
2022-10-07T04:25:49.310Z,99.90
2022-10-07T04:28:26.132Z,99.90
2022-10-07T04:31:08.760Z,99.90
2022-10-07T04:33:41.466Z,99.90
2022-10-07T04:36:11.752Z,99.90
2022-10-07T04:39:02.933Z,99.90
2022-10-07T04:41:34.646Z,99.90
2022-10-07T04:44:02.638Z,99.90
2022-10-07T04:46:35.280Z,99.90
2022-10-07T04:49:13.094Z,99.90
2022-10-07T04:51:40.898Z,99.90
2022-10-07T04:54:08.447Z,99.90
2022-10-07T04:56:42.799Z,99.90
2022-10-07T04:59:12.654Z,99.90
2022-10-07T05:01:41.495Z,99.90
2022-10-07T05:04:10.872Z,99.90
2022-10-07T05:06:38.226Z,99.90
2022-10-07T05:09:05.470Z,99.90
2022-10-07T05:11:37.642Z,99.90
2022-10-07T05:14:13.060Z,99.90
2022-10-07T05:16:41.486Z,99.90
2022-10-07T05:19:12.835Z,99.90
2022-10-07T05:21:40.146Z,99.90
2022-10-07T05:24:07.663Z,99.00
2022-10-07T05:26:37.668Z,98.10
2022-10-07T05:29:07.486Z,97.70
2022-10-07T05:31:38.991Z,95.90
2022-10-07T05:34:09.187Z,96.80
2022-10-07T05:36:37.130Z,96.80
2022-10-07T05:39:07.014Z,99.90
2022-10-07T05:41:45.631Z,93.40
2022-10-07T05:44:16.617Z,66.70
2022-10-07T05:46:44.004Z,1.00
2022-10-07T05:49:13.006Z,99.90
2022-10-07T05:51:41.150Z,1.00
2022-10-07T05:54:08.735Z,99.90
2022-10-07T05:56:40.016Z,99.90
2022-10-07T05:59:07.950Z,99.90
2022-10-07T06:01:36.283Z,99.90
2022-10-07T06:04:09.076Z,2.30
2022-10-07T06:06:39.670Z,7.60
2022-10-07T06:09:29.628Z,1.00
2022-10-07T06:12:17.153Z,1.00
2022-10-07T06:14:45.924Z,1.00
2022-10-07T06:17:13.090Z,1.00
2022-10-07T06:19:42.093Z,99.90
2022-10-07T06:22:09.567Z,99.90
2022-10-07T06:24:38.463Z,1.00
2022-10-07T06:27:05.770Z,99.90
2022-10-07T06:29:32.979Z,99.90
2022-10-07T06:32:02.003Z,99.90
2022-10-07T06:34:30.286Z,99.90
2022-10-07T06:37:01.631Z,20.70
2022-10-07T06:39:29.038Z,86.90
2022-10-07T06:41:57.683Z,23.60
2022-10-07T06:44:39.799Z,99.90
2022-10-07T06:47:11.855Z,99.90
2022-10-07T06:49:41.142Z,7.90
2022-10-07T06:52:08.306Z,99.90
2022-10-07T06:54:36.432Z,99.90
2022-10-07T06:57:20.445Z,90.30
2022-10-07T06:59:51.818Z,99.90
2022-10-07T07:02:19.822Z,57.60
2022-10-07T07:04:48.429Z,10.80
2022-10-07T07:07:15.713Z,99.90
2022-10-07T07:09:43.514Z,1.00
2022-10-07T07:12:14.138Z,38.60
2022-10-07T07:14:45.096Z,60.30
2022-10-07T07:17:18.910Z,23.60
2022-10-07T07:19:46.146Z,1.00
2022-10-07T07:22:13.152Z,99.90
2022-10-07T07:24:42.447Z,10.90
2022-10-07T07:27:10.148Z,99.90
2022-10-07T07:29:37.872Z,99.90
2022-10-07T07:32:04.953Z,99.90
2022-10-07T07:34:38.183Z,99.90
2022-10-07T07:37:07.123Z,99.90
2022-10-07T07:39:39.341Z,1.00
2022-10-07T07:42:12.504Z,99.90
2022-10-07T07:44:40.252Z,99.90
2022-10-07T07:47:12.857Z,99.90
2022-10-07T07:49:40.697Z,99.90
2022-10-07T07:52:11.787Z,99.90
2022-10-07T07:54:43.921Z,99.90
2022-10-07T07:57:11.881Z,99.90
2022-10-07T07:59:39.586Z,99.90
2022-10-07T08:02:12.404Z,15.50
2022-10-07T08:04:43.264Z,99.90
2022-10-07T08:07:13.086Z,99.90
2022-10-07T08:09:42.970Z,99.90
2022-10-07T08:12:10.490Z,14.90
2022-10-07T08:14:38.311Z,1.00
2022-10-07T08:17:06.850Z,1.00
2022-10-07T08:19:34.895Z,91.00
2022-10-07T08:22:04.588Z,7.60
2022-10-07T08:24:32.665Z,99.90
2022-10-07T08:26:59.727Z,99.90
2022-10-07T08:29:26.836Z,99.90
2022-10-07T08:31:54.187Z,99.90
2022-10-07T08:34:21.437Z,13.00
2022-10-07T08:36:50.537Z,56.90
2022-10-07T08:39:20.033Z,99.90
2022-10-07T08:41:55.601Z,99.90
2022-10-07T08:44:23.202Z,1.00
2022-10-07T08:47:16.347Z,99.90
2022-10-07T08:49:46.650Z,72.60
2022-10-07T08:52:33.508Z,99.90
2022-10-07T08:55:01.894Z,99.90
2022-10-07T08:58:09.722Z,99.90
2022-10-07T09:00:51.981Z,1.00
2022-10-07T09:03:33.358Z,99.90
2022-10-07T09:06:06.328Z,99.90
2022-10-07T09:08:41.296Z,99.90
2022-10-07T09:11:16.579Z,99.90
2022-10-07T09:13:54.478Z,99.90
2022-10-07T09:16:29.709Z,99.90
2022-10-07T09:19:02.441Z,99.90
2022-10-07T09:21:32.966Z,99.90
2022-10-07T09:24:20.640Z,99.90
2022-10-07T09:26:48.558Z,99.90
2022-10-07T09:29:19.347Z,99.90
2022-10-07T09:31:47.197Z,99.90
2022-10-07T09:34:26.084Z,99.90
2022-10-07T09:37:20.875Z,99.90
2022-10-07T09:39:50.546Z,99.90
2022-10-07T09:42:25.108Z,99.90
2022-10-07T09:44:54.833Z,99.90
2022-10-07T09:47:28.991Z,99.90
2022-10-07T09:49:59.772Z,99.90
2022-10-07T09:52:29.862Z,99.90
2022-10-07T09:55:17.810Z,5.40
2022-10-07T09:58:00.170Z,99.90
2022-10-07T10:00:28.595Z,99.90
2022-10-07T10:03:05.544Z,99.90
2022-10-07T10:05:38.733Z,99.90
2022-10-07T10:08:21.146Z,99.90
2022-10-07T10:10:57.050Z,99.90
2022-10-07T10:13:27.236Z,99.90
2022-10-07T10:15:54.409Z,99.90
2022-10-07T10:18:27.611Z,99.90
2022-10-07T10:20:55.333Z,98.50
2022-10-07T10:23:36.132Z,99.90
2022-10-07T10:26:32.800Z,99.90
2022-10-07T10:29:37.134Z,80.60
2022-10-07T10:32:43.436Z,49.30
2022-10-07T10:35:28.419Z,79.30
2022-10-07T10:38:08.592Z,99.90
2022-10-07T10:40:40.851Z,99.40
2022-10-07T10:43:36.647Z,22.50
2022-10-07T10:46:31.120Z,1.00
2022-10-07T10:49:27.343Z,1.00
2022-10-07T10:52:13.219Z,1.00
2022-10-07T10:54:50.652Z,1.00
2022-10-07T10:57:33.109Z,7.70
2022-10-07T11:00:12.805Z,3.70
2022-10-07T11:02:40.752Z,1.00
2022-10-07T11:05:17.446Z,10.70
2022-10-07T11:07:51.215Z,1.00
2022-10-07T11:10:25.794Z,1.00
2022-10-07T11:13:02.077Z,1.00
2022-10-07T11:15:35.642Z,1.00
2022-10-07T11:18:12.115Z,1.00
2022-10-07T11:20:47.949Z,1.00
2022-10-07T11:23:30.960Z,1.00
2022-10-07T11:26:03.069Z,1.00
2022-10-07T11:28:36.931Z,1.00
2022-10-07T11:31:12.512Z,1.00
2022-10-07T11:33:49.067Z,1.00
2022-10-07T11:36:21.772Z,1.00
2022-10-07T11:38:52.640Z,7.90
2022-10-07T11:41:32.298Z,1.00
2022-10-07T11:44:08.783Z,1.00
2022-10-07T11:46:45.610Z,1.00
2022-10-07T11:49:29.960Z,1.00
2022-10-07T11:52:07.507Z,1.00
2022-10-07T11:54:46.907Z,5.10
2022-10-07T11:57:26.882Z,41.10
2022-10-07T12:00:08.408Z,43.30
2022-10-07T12:02:48.757Z,99.90
2022-10-07T12:05:34.329Z,54.70
2022-10-07T12:08:23.832Z,56.40
2022-10-07T12:10:55.670Z,49.50
2022-10-07T12:13:22.681Z,44.10
2022-10-07T12:15:51.242Z,42.30
2022-10-07T12:18:27.652Z,55.00
2022-10-07T12:21:03.275Z,92.20
2022-10-07T12:23:31.098Z,82.70
2022-10-07T12:26:31.239Z,99.90
2022-10-07T12:28:59.290Z,99.90
2022-10-07T12:31:26.285Z,99.90
2022-10-07T12:34:10.495Z,31.00
2022-10-07T12:36:40.787Z,65.10
2022-10-07T12:39:09.602Z,99.90
2022-10-07T12:41:40.053Z,99.90
2022-10-07T12:44:47.236Z,92.40
2022-10-07T12:47:29.572Z,78.20
2022-10-07T12:50:02.444Z,30.80
2022-10-07T12:52:42.987Z,17.60
2022-10-07T12:55:19.442Z,21.90
2022-10-07T12:57:52.548Z,42.90
2022-10-07T13:00:24.819Z,1.00
2022-10-07T13:03:43.815Z,5.10
2022-10-07T13:06:32.712Z,1.00
2022-10-07T13:09:38.925Z,1.00
2022-10-07T13:12:34.000Z,1.00
2022-10-07T13:15:09.215Z,3.30
2022-10-07T13:17:59.329Z,10.80
2022-10-07T13:20:51.940Z,38.50
2022-10-07T13:23:26.768Z,34.00
2022-10-07T13:25:57.493Z,40.70
2022-10-07T13:28:49.641Z,65.10
2022-10-07T13:31:20.667Z,54.60
2022-10-07T13:33:51.770Z,12.70
2022-10-07T13:36:23.102Z,22.40
2022-10-07T13:39:13.804Z,14.90
2022-10-07T13:41:45.302Z,15.00
2022-10-07T13:44:15.656Z,1.00
2022-10-07T13:47:00.245Z,2.60
2022-10-07T13:49:40.913Z,20.30
2022-10-07T13:52:21.695Z,5.60
2022-10-07T13:54:53.191Z,11.90
2022-10-07T13:57:22.170Z,28.10
2022-10-07T13:59:53.180Z,11.10
2022-10-07T14:02:24.295Z,18.00
2022-10-07T14:04:54.458Z,17.20
2022-10-07T14:07:21.971Z,8.80
2022-10-07T14:10:04.881Z,17.50
2022-10-07T14:12:48.951Z,46.50
2022-10-07T14:15:24.663Z,82.00
2022-10-07T14:18:06.402Z,95.90
2022-10-07T14:20:39.064Z,98.10
2022-10-07T14:23:17.691Z,99.90
2022-10-07T14:25:47.776Z,99.90
2022-10-07T14:28:25.339Z,99.90
2022-10-07T14:31:27.214Z,99.90
2022-10-07T14:34:46.820Z,99.90
2022-10-07T14:37:19.626Z,99.90
2022-10-07T14:39:49.048Z,99.90
2022-10-07T14:42:24.968Z,99.90
2022-10-07T14:44:54.902Z,99.90
2022-10-07T14:47:28.233Z,99.90
2022-10-07T14:49:59.481Z,99.90
2022-10-07T14:52:31.581Z,99.90
2022-10-07T14:55:02.401Z,99.90
2022-10-07T14:57:29.460Z,99.90
2022-10-07T14:59:56.690Z,99.90
2022-10-07T15:02:23.733Z,99.90
2022-10-07T15:04:50.971Z,99.90
2022-10-07T15:07:18.424Z,99.90
2022-10-07T15:09:46.724Z,99.90
2022-10-07T15:12:15.357Z,99.90
2022-10-07T15:14:42.951Z,99.90
2022-10-07T15:17:12.330Z,99.90
2022-10-07T15:19:39.915Z,1.00
2022-10-07T15:22:07.075Z,1.00
2022-10-07T15:24:35.800Z,45.20
2022-10-07T15:27:02.859Z,99.90
2022-10-07T15:29:30.042Z,99.90
2022-10-07T15:31:58.652Z,99.90
2022-10-07T15:34:25.886Z,99.90
2022-10-07T15:36:53.279Z,99.90
2022-10-07T15:39:20.282Z,99.90
2022-10-07T15:41:48.495Z,99.90
2022-10-07T15:44:18.215Z,1.00
2022-10-07T15:46:48.528Z,99.90
2022-10-07T15:49:19.416Z,99.90
2022-10-07T15:51:46.895Z,95.20
2022-10-07T15:54:14.525Z,99.90
2022-10-07T15:56:42.925Z,99.90
2022-10-07T15:59:10.296Z,99.90
2022-10-07T16:01:37.649Z,99.90
2022-10-07T16:04:06.006Z,1.00
2022-10-07T16:06:35.262Z,99.90
2022-10-07T16:09:02.606Z,99.90
2022-10-07T16:11:32.092Z,99.90
2022-10-07T16:14:01.940Z,99.90
2022-10-07T16:16:31.399Z,1.00
2022-10-07T16:19:00.491Z,1.00
2022-10-07T16:21:39.379Z,99.90
2022-10-07T16:24:11.497Z,99.90
2022-10-07T16:26:38.738Z,99.90
2022-10-07T16:29:27.112Z,99.90
2022-10-07T16:31:58.905Z,1.00
2022-10-07T16:34:28.352Z,87.40
2022-10-07T16:36:57.920Z,99.90
2022-10-07T16:39:25.382Z,99.90
2022-10-07T16:41:53.080Z,99.90
2022-10-07T16:44:21.071Z,99.90
2022-10-07T16:46:49.331Z,99.90
2022-10-07T16:49:18.114Z,99.90
2022-10-07T16:51:46.545Z,99.90
2022-10-07T16:54:16.956Z,99.90
2022-10-07T16:56:50.842Z,99.90
2022-10-07T16:59:23.296Z,99.90
2022-10-07T17:01:56.270Z,99.90
2022-10-07T17:04:25.184Z,99.90
2022-10-07T17:06:53.422Z,99.90
2022-10-07T17:09:21.891Z,99.90
2022-10-07T17:11:49.389Z,99.90
2022-10-07T17:14:18.882Z,99.90
2022-10-07T17:17:12.473Z,99.90
2022-10-07T17:19:39.759Z,99.90
2022-10-07T17:22:07.875Z,99.90
2022-10-07T17:24:35.704Z,99.90
2022-10-07T17:27:02.995Z,99.90
2022-10-07T17:29:33.330Z,99.90
2022-10-07T17:32:06.862Z,99.90
2022-10-07T17:34:34.262Z,1.00
2022-10-07T17:37:01.309Z,1.00
2022-10-07T17:39:31.207Z,1.00
2022-10-07T17:41:58.209Z,1.00
2022-10-07T17:44:25.743Z,1.00
2022-10-07T17:46:53.142Z,1.00
2022-10-07T17:49:20.693Z,1.00
2022-10-07T17:51:47.967Z,1.00
2022-10-07T17:54:16.509Z,1.00
2022-10-07T17:56:44.497Z,1.00
2022-10-07T17:59:12.643Z,1.00
2022-10-07T18:01:41.251Z,1.00
2022-10-07T18:04:13.438Z,1.00
2022-10-07T18:06:43.295Z,1.00
2022-10-07T18:09:18.591Z,1.00
2022-10-07T18:12:04.468Z,1.00
2022-10-07T18:14:53.829Z,1.00
2022-10-07T18:17:22.560Z,1.00
2022-10-07T18:19:50.153Z,1.00
2022-10-07T18:22:17.398Z,1.00
2022-10-07T18:24:44.578Z,1.00
2022-10-07T18:27:12.866Z,1.00
2022-10-07T18:29:40.537Z,1.00
2022-10-07T18:32:08.109Z,1.00
2022-10-07T18:34:35.413Z,1.00
2022-10-07T18:37:02.739Z,1.00
2022-10-07T18:39:29.954Z,1.00
2022-10-07T18:41:58.313Z,1.00
2022-10-07T18:44:26.055Z,1.00
2022-10-07T18:46:53.683Z,1.00
2022-10-07T18:49:21.252Z,1.00
2022-10-07T18:51:50.592Z,1.00
2022-10-07T18:54:19.818Z,1.00
2022-10-07T18:56:48.245Z,1.00
2022-10-07T18:59:16.295Z,1.00
2022-10-07T19:01:47.909Z,1.00
2022-10-07T19:04:18.422Z,1.00
2022-10-07T19:06:46.231Z,1.00
2022-10-07T19:09:16.702Z,1.00
2022-10-07T19:11:45.021Z,1.00
2022-10-07T19:14:13.200Z,1.70
2022-10-07T19:16:45.554Z,1.00
2022-10-07T19:19:19.073Z,1.00
2022-10-07T19:21:48.662Z,1.00
2022-10-07T19:24:16.832Z,1.00
2022-10-07T19:26:47.602Z,1.00
2022-10-07T19:29:16.640Z,1.00
2022-10-07T19:31:47.030Z,1.00
2022-10-07T19:34:24.133Z,1.00
2022-10-07T19:36:57.524Z,3.20
2022-10-07T19:39:24.897Z,1.20
2022-10-07T19:41:52.422Z,6.70
2022-10-07T19:44:22.297Z,2.10
2022-10-07T19:46:54.201Z,7.50
2022-10-07T19:49:22.255Z,4.70
2022-10-07T19:51:49.367Z,6.90
2022-10-07T19:54:16.620Z,4.80
2022-10-07T19:56:45.313Z,1.00
2022-10-07T19:59:14.212Z,1.00
2022-10-07T20:01:44.158Z,1.00
2022-10-07T20:04:13.537Z,1.00
2022-10-07T20:06:41.638Z,1.00
2022-10-07T20:09:12.509Z,1.00
2022-10-07T20:11:39.999Z,1.00
2022-10-07T20:14:07.686Z,1.00
2022-10-07T20:16:37.274Z,1.00
2022-10-07T20:19:13.901Z,1.00
2022-10-07T20:21:41.781Z,1.00
2022-10-07T20:24:09.386Z,1.00
2022-10-07T20:26:38.380Z,1.00
2022-10-07T20:29:08.943Z,1.00
2022-10-07T20:31:39.205Z,1.00
2022-10-07T20:34:07.887Z,1.00
2022-10-07T20:36:37.652Z,1.00
2022-10-07T20:39:28.275Z,1.00
2022-10-07T20:42:14.090Z,1.00
2022-10-07T20:44:41.392Z,1.00
2022-10-07T20:47:09.999Z,1.00
2022-10-07T20:49:41.213Z,1.00
2022-10-07T20:52:16.656Z,1.00
2022-10-07T20:54:44.725Z,1.00
2022-10-07T20:57:16.539Z,1.00
2022-10-07T20:59:44.425Z,1.00
2022-10-07T21:02:13.549Z,1.00
2022-10-07T21:04:40.881Z,1.00
2022-10-07T21:07:09.099Z,1.00
2022-10-07T21:09:36.733Z,1.00
2022-10-07T21:12:07.419Z,1.00
2022-10-07T21:14:35.530Z,1.00
2022-10-07T21:17:05.104Z,1.00
2022-10-07T21:19:34.072Z,1.00
2022-10-07T21:22:02.679Z,1.00
2022-10-07T21:24:30.925Z,1.00
2022-10-07T21:26:58.117Z,1.00
2022-10-07T21:29:25.466Z,1.00
2022-10-07T21:31:53.269Z,1.00
2022-10-07T21:34:20.939Z,1.00
2022-10-07T21:36:52.963Z,1.00
2022-10-07T21:39:21.533Z,1.00
2022-10-07T21:41:49.392Z,1.00
2022-10-07T21:44:16.721Z,1.00
2022-10-07T21:46:45.602Z,1.00
2022-10-07T21:49:14.383Z,1.00
2022-10-07T21:51:41.939Z,1.00
2022-10-07T21:54:14.608Z,1.00
2022-10-07T21:56:43.712Z,2.90
2022-10-07T21:59:11.318Z,4.00
2022-10-07T22:01:38.903Z,5.50
2022-10-07T22:04:07.455Z,9.80
2022-10-07T22:06:53.611Z,14.20
2022-10-07T22:09:21.438Z,14.10
2022-10-07T22:12:32.240Z,17.70
2022-10-07T22:15:01.243Z,14.50
2022-10-07T22:17:28.696Z,20.00
2022-10-07T22:19:55.806Z,21.00
2022-10-07T22:22:25.428Z,19.20
2022-10-07T22:24:52.957Z,22.60
2022-10-07T22:27:20.130Z,24.20
2022-10-07T22:29:48.363Z,26.20
2022-10-07T22:32:15.623Z,23.40
2022-10-07T22:35:01.170Z,24.50
2022-10-07T22:37:29.402Z,24.40
2022-10-07T22:39:56.371Z,31.30
2022-10-07T22:42:23.367Z,28.10
2022-10-07T22:44:50.691Z,29.10
2022-10-07T22:47:17.685Z,28.20
2022-10-07T22:49:48.322Z,27.70
2022-10-07T22:52:15.582Z,29.90
2022-10-07T22:54:42.734Z,33.60
2022-10-07T22:57:09.831Z,38.10
2022-10-07T22:59:38.926Z,37.80
2022-10-07T23:02:06.018Z,37.80
2022-10-07T23:04:32.980Z,41.20
2022-10-07T23:07:00.172Z,41.00
2022-10-07T23:09:27.172Z,39.80
2022-10-07T23:11:54.276Z,41.80
2022-10-07T23:14:21.469Z,43.80
2022-10-07T23:16:48.456Z,46.70
2022-10-07T23:19:17.969Z,47.00
2022-10-07T23:21:45.141Z,47.20
2022-10-07T23:24:12.728Z,44.20
2022-10-07T23:26:39.931Z,45.90
2022-10-07T23:29:07.823Z,43.40
2022-10-07T23:31:34.907Z,45.40
2022-10-07T23:34:03.164Z,46.00
2022-10-07T23:36:31.269Z,46.20
2022-10-07T23:39:02.793Z,48.30
2022-10-07T23:41:31.548Z,46.30
2022-10-07T23:44:15.996Z,48.10
2022-10-07T23:46:45.803Z,49.00
2022-10-07T23:49:13.336Z,54.30
2022-10-07T23:51:40.408Z,50.60
2022-10-07T23:54:07.477Z,50.80
2022-10-07T23:56:34.830Z,53.30
2022-10-07T23:59:02.744Z,50.50
